Time;durP1;ratioP1;P1;durP2;ratioP2;P2;SDS_P1;SDS_P2;PMS_P1;PMS_P2;Temp;Humidity;BMP_temperature;BMP_pressure;BME280_temperature;BME280_humidity;BME280_pressure;Samples;Min_cycle;Max_cycle;Signal;HPM_P1;HPM_P2
2022/09/29 00:00:37;;;;;;;11.57;6.88;;;;;;;10.93;62.75;99934.91;4955780;28;123246;-63
2022/09/29 00:03:05;;;;;;;10.52;7.35;;;;;;;10.93;62.47;99931.41;4960404;28;114192;-63
2022/09/29 00:05:33;;;;;;;10.23;7.60;;;;;;;10.90;62.59;99924.47;4959203;28;114122;-64
2022/09/29 00:08:00;;;;;;;10.88;7.18;;;;;;;10.90;62.42;99932.44;4956930;28;124356;-64
2022/09/29 00:10:28;;;;;;;11.55;7.22;;;;;;;10.87;62.27;99935.28;4970154;28;123255;-63
2022/09/29 00:12:55;;;;;;;9.65;7.50;;;;;;;10.86;62.64;99928.28;4950748;28;115449;-63
2022/09/29 00:15:22;;;;;;;9.80;7.70;;;;;;;10.85;62.37;99931.84;4950461;28;116421;-64
2022/09/29 00:17:49;;;;;;;10.55;7.45;;;;;;;10.81;62.41;99935.63;4954116;28;123832;-64
2022/09/29 00:20:37;;;;;;;9.60;6.80;;;;;;;10.78;62.55;99935.84;4972784;28;124301;-63
2022/09/29 00:23:04;;;;;;;9.93;6.50;;;;;;;10.75;62.36;99931.56;4960245;28;114644;-63
2022/09/29 00:25:32;;;;;;;8.95;7.00;;;;;;;10.73;62.15;99928.16;4960104;28;114138;-64
2022/09/29 00:27:59;;;;;;;9.65;6.70;;;;;;;10.70;62.23;99923.91;4958480;28;123914;-63
2022/09/29 00:30:26;;;;;;;8.45;6.57;;;;;;;10.67;62.46;99923.25;4955870;28;123804;-64
2022/09/29 00:32:53;;;;;;;8.38;6.65;;;;;;;10.64;62.52;99924.28;4958017;28;114314;-64
2022/09/29 00:35:20;;;;;;;9.57;7.15;;;;;;;10.62;62.32;99920.84;4955757;28;113703;-63
2022/09/29 00:37:48;;;;;;;10.50;7.78;;;;;;;10.60;62.18;99922.75;4970273;28;123377;-64
2022/09/29 00:40:15;;;;;;;10.10;7.22;;;;;;;10.55;62.17;99919.53;4968760;28;124155;-64
2022/09/29 00:42:42;;;;;;;10.80;7.78;;;;;;;10.53;62.29;99926.72;4953797;28;114132;-64
2022/09/29 00:45:21;;;;;;;12.48;8.07;;;;;;;10.52;62.16;99925.00;4956635;28;114249;-64
2022/09/29 00:47:57;;;;;;;11.18;8.63;;;;;;;10.49;62.79;99925.19;4972543;28;124130;-64
2022/09/29 00:50:42;;;;;;;11.23;8.02;;;;;;;10.48;62.28;99923.50;4957101;28;124006;-63
2022/09/29 00:53:12;;;;;;;11.27;7.63;;;;;;;10.47;62.58;99921.78;4955735;28;114603;-64
2022/09/29 00:55:52;;;;;;;8.65;6.68;;;;;;;10.43;62.51;99925.56;4953544;28;114084;-64
2022/09/29 00:58:30;;;;;;;10.85;6.97;;;;;;;10.41;62.42;99923.00;4960381;28;124098;-63
2022/09/29 01:00:58;;;;;;;8.25;6.38;;;;;;;10.39;62.45;99926.69;4953886;28;124243;-63
2022/09/29 01:03:30;;;;;;;7.90;6.50;;;;;;;10.37;62.53;99925.91;4955058;28;114839;-63
2022/09/29 01:06:01;;;;;;;8.23;6.40;;;;;;;10.35;62.36;99922.50;4970929;28;113915;-63
2022/09/29 01:08:50;;;;;;;6.00;5.07;;;;;;;10.31;62.44;99922.69;4953875;28;124167;-63
2022/09/29 01:11:20;;;;;;;6.93;4.82;;;;;;;10.27;62.16;99921.13;4957146;28;124730;-63
2022/09/29 01:13:48;;;;;;;6.22;4.88;;;;;;;10.23;62.45;99921.41;4953577;28;114930;-63
2022/09/29 01:16:15;;;;;;;9.32;5.00;;;;;;;10.21;62.26;99924.16;4953492;28;113238;-63
2022/09/29 01:18:45;;;;;;;7.10;5.32;;;;;;;10.17;62.36;99919.97;4951072;28;123878;-63
2022/09/29 01:21:24;;;;;;;8.50;5.88;;;;;;;10.14;62.37;99930.72;4960018;28;124362;-63
2022/09/29 01:24:18;;;;;;;8.93;5.85;;;;;;;10.11;62.30;99925.59;4963898;28;114125;-63
2022/09/29 01:27:11;;;;;;;7.75;5.35;;;;;;;10.08;62.27;99920.50;4955670;28;114059;-63
2022/09/29 01:30:02;;;;;;;6.28;5.20;;;;;;;10.04;62.31;99929.53;4958041;28;123323;-63
2022/09/29 01:32:39;;;;;;;8.63;5.00;;;;;;;9.99;62.28;99927.19;4959615;28;96896;-63
2022/09/29 01:35:14;;;;;;;6.18;4.90;;;;;;;9.96;62.17;99931.78;4950285;28;114769;-63
2022/09/29 01:37:46;;;;;;;7.40;4.38;;;;;;;9.91;62.20;99935.56;4954781;28;115075;-64
2022/09/29 01:40:17;;;;;;;14.63;4.97;;;;;;;9.88;62.23;99935.72;4958644;28;124449;-64
2022/09/29 01:42:52;;;;;;;6.22;3.88;;;;;;;9.83;62.09;99932.50;4956368;28;124278;-64
2022/09/29 01:45:28;;;;;;;5.97;4.18;;;;;;;9.78;61.97;99929.25;4971595;28;113891;-64
2022/09/29 01:48:00;;;;;;;8.18;4.40;;;;;;;9.75;62.15;99934.69;4964171;28;113899;-63
2022/09/29 01:50:36;;;;;;;6.82;3.78;;;;;;;9.71;62.00;99933.19;4959932;28;123951;-63
2022/09/29 01:53:11;;;;;;;7.60;4.50;;;;;;;9.66;62.01;99935.22;4965499;28;124391;-64
2022/09/29 01:55:45;;;;;;;6.13;4.50;;;;;;;9.64;62.04;99937.09;4959534;28;115671;-63
2022/09/29 01:58:19;;;;;;;7.07;4.57;;;;;;;9.61;62.21;99934.66;4959269;28;115180;-64
2022/09/29 02:00:52;;;;;;;6.13;4.60;;;;;;;9.60;62.01;99940.84;4960146;28;124375;-63
2022/09/29 02:03:40;;;;;;;5.82;4.28;;;;;;;9.57;62.21;99946.31;4957168;28;124444;-63
2022/09/29 02:06:14;;;;;;;6.15;4.38;;;;;;;9.52;62.00;99931.56;4955891;28;114966;-63
2022/09/29 02:08:48;;;;;;;7.65;4.15;;;;;;;9.49;61.94;99939.69;4952263;28;113714;-64
2022/09/29 02:11:16;;;;;;;4.60;4.03;;;;;;;9.47;62.31;99936.22;4952844;28;123009;-63
2022/09/29 02:14:02;;;;;;;5.78;3.72;;;;;;;9.45;62.36;99935.47;4956915;28;124072;-64
2022/09/29 02:16:31;;;;;;;5.60;3.78;;;;;;;9.43;62.35;99942.63;4953176;28;114760;-63
2022/09/29 02:19:16;;;;;;;4.95;3.90;;;;;;;9.40;62.27;99940.19;4952518;28;114347;-63
2022/09/29 02:21:44;;;;;;;5.85;3.85;;;;;;;9.37;62.27;99935.03;4970494;28;123745;-63
2022/09/29 02:24:12;;;;;;;6.03;4.47;;;;;;;9.34;62.10;99935.19;4957100;28;124011;-63
2022/09/29 02:26:41;;;;;;;6.50;4.95;;;;;;;9.32;62.22;99934.44;4954720;28;113697;-64
2022/09/29 02:29:08;;;;;;;7.80;6.15;;;;;;;9.31;62.18;99940.69;4950954;28;114493;-63
2022/09/29 02:31:37;;;;;;;9.32;5.55;;;;;;;9.29;62.17;99942.56;4959757;28;123939;-63
2022/09/29 02:34:07;;;;;;;7.45;5.28;;;;;;;9.29;62.32;99937.25;4953379;28;124268;-63
2022/09/29 02:36:56;;;;;;;7.40;5.55;;;;;;;9.26;62.05;99948.00;4958873;28;114101;-63
2022/09/29 02:39:38;;;;;;;10.23;7.03;;;;;;;9.24;62.30;99939.28;4958447;28;114019;-63
2022/09/29 02:42:18;;;;;;;11.55;8.30;;;;;;;9.24;62.32;99939.28;4954601;28;124690;-63
2022/09/29 02:45:15;;;;;;;23.80;7.85;;;;;;;9.23;62.39;99937.56;4968206;28;123320;-64
2022/09/29 02:48:16;;;;;;;17.33;8.02;;;;;;;9.22;62.70;99941.16;4954616;28;115505;-63
2022/09/29 02:51:08;;;;;;;9.52;6.93;;;;;;;9.21;62.63;99935.03;4953933;28;115049;-63
2022/09/29 02:53:43;;;;;;;12.10;6.10;;;;;;;9.21;62.84;99934.16;4954379;28;124241;-63
2022/09/29 02:56:32;;;;;;;5.80;4.50;;;;;;;9.21;62.65;99936.81;4954397;28;123531;-63
2022/09/29 02:59:05;;;;;;;7.35;5.18;;;;;;;9.22;62.59;99941.16;4960255;28;115455;-63
2022/09/29 03:01:33;;;;;;;8.27;5.00;;;;;;;9.21;62.33;99936.81;4960899;28;113943;-63
2022/09/29 03:04:00;;;;;;;5.65;4.50;;;;;;;9.19;62.39;99936.03;4963745;28;124105;-63
2022/09/29 03:06:31;;;;;;;5.75;4.22;;;;;;;9.15;62.02;99930.94;4952104;28;124327;-63
2022/09/29 03:08:58;;;;;;;5.82;3.70;;;;;;;9.13;62.16;99943.34;4953897;28;114594;-63
2022/09/29 03:11:25;;;;;;;6.45;4.32;;;;;;;9.10;62.20;99937.41;4954690;28;114032;-63
2022/09/29 03:13:58;;;;;;;6.93;4.88;;;;;;;9.05;62.19;99940.28;4954177;28;124035;-63
2022/09/29 03:16:25;;;;;;;6.85;5.50;;;;;;;9.02;62.25;99932.50;4954694;28;125122;-63
2022/09/29 03:18:54;;;;;;;8.70;6.20;;;;;;;9.01;62.44;99933.47;4973730;28;113663;-63
2022/09/29 03:21:21;;;;;;;10.43;7.05;;;;;;;9.00;62.45;99931.75;4956677;28;115156;-63
2022/09/29 03:23:48;;;;;;;10.27;7.35;;;;;;;9.01;62.51;99930.81;4956441;28;124905;-63
2022/09/29 03:26:20;;;;;;;11.13;7.57;;;;;;;9.01;62.65;99932.63;4968469;28;123180;-63
2022/09/29 03:28:47;;;;;;;12.38;8.02;;;;;;;9.00;62.30;99942.31;4956905;28;114624;-63
2022/09/29 03:31:14;;;;;;;14.25;7.38;;;;;;;9.01;62.45;99930.81;4958037;28;113941;-63
2022/09/29 03:33:42;;;;;;;9.95;6.07;;;;;;;9.00;62.56;99942.31;4975171;28;123720;-63
2022/09/29 03:36:10;;;;;;;7.97;5.93;;;;;;;8.99;62.25;99940.59;4953934;28;124225;-63
2022/09/29 03:38:38;;;;;;;7.13;5.93;;;;;;;8.99;62.65;99940.59;4953062;28;115536;-63
2022/09/29 03:41:06;;;;;;;9.45;5.50;;;;;;;8.96;62.21;99940.75;4954569;28;115022;-63
2022/09/29 03:43:33;;;;;;;10.68;5.18;;;;;;;8.94;62.54;99945.28;4959476;28;124123;-63
2022/09/29 03:46:00;;;;;;;6.97;4.75;;;;;;;8.91;62.28;99948.06;4954935;28;124016;-63
2022/09/29 03:48:30;;;;;;;12.73;5.00;;;;;;;8.87;62.30;99946.53;4960979;28;114641;-63
2022/09/29 03:50:57;;;;;;;6.00;4.90;;;;;;;8.85;62.09;99943.13;4955986;28;114533;-63
2022/09/29 03:53:24;;;;;;;5.90;4.75;;;;;;;8.83;61.93;99951.09;4959523;28;123128;-64
2022/09/29 03:55:51;;;;;;;6.85;5.05;;;;;;;8.79;62.01;99943.44;4953371;28;124234;-64
2022/09/29 03:58:18;;;;;;;8.95;5.75;;;;;;;8.77;62.29;99947.00;4968994;28;114739;-63
2022/09/29 04:00:48;;;;;;;8.27;6.35;;;;;;;8.74;62.55;99947.19;4961197;28;114382;-63
2022/09/29 04:03:15;;;;;;;6.05;4.75;;;;;;;8.74;62.24;99952.47;4955104;28;123696;-63
2022/09/29 04:05:47;;;;;;;5.30;4.35;;;;;;;8.70;62.28;99944.75;4954080;28;123882;-63
2022/09/29 04:08:14;;;;;;;7.50;5.30;;;;;;;8.68;62.44;99952.78;4955534;28;114711;-63
2022/09/29 04:10:42;;;;;;;7.00;5.03;;;;;;;8.66;62.36;99949.34;4975864;28;113783;-63
2022/09/29 04:13:09;;;;;;;10.60;5.47;;;;;;;8.65;62.06;99952.94;4953637;28;124610;-63
2022/09/29 04:15:36;;;;;;;7.00;5.65;;;;;;;8.63;62.44;99954.81;4973379;28;124368;-63
2022/09/29 04:18:04;;;;;;;7.00;5.20;;;;;;;8.59;62.54;99947.97;4956230;28;113960;-63
2022/09/29 04:20:32;;;;;;;12.52;5.18;;;;;;;8.58;62.68;99959.44;4956761;28;114229;-63
2022/09/29 04:23:00;;;;;;;10.00;5.60;;;;;;;8.57;62.35;99960.41;4981668;28;123971;-64
2022/09/29 04:25:27;;;;;;;7.90;5.35;;;;;;;8.55;62.24;99967.50;4956556;28;124113;-63
2022/09/29 04:27:54;;;;;;;7.80;5.18;;;;;;;8.54;62.40;99971.09;4954897;28;115083;-63
2022/09/29 04:30:21;;;;;;;7.45;5.47;;;;;;;8.52;62.32;99967.69;4951579;28;115088;-64
2022/09/29 04:32:48;;;;;;;7.07;5.50;;;;;;;8.51;62.32;99971.25;4962071;28;124325;-63
2022/09/29 04:35:15;;;;;;;8.77;6.00;;;;;;;8.49;62.06;99967.84;4958775;28;122884;-66
2022/09/29 04:37:43;;;;;;;7.22;5.72;;;;;;;8.48;62.12;99963.50;4971053;28;114388;-66
2022/09/29 04:40:10;;;;;;;8.50;6.13;;;;;;;8.46;62.24;99970.66;4953735;28;114075;-64
2022/09/29 04:42:37;;;;;;;10.48;6.30;;;;;;;8.45;62.09;99972.41;4957900;28;123779;-65
2022/09/29 04:45:05;;;;;;;7.70;5.70;;;;;;;8.44;62.22;99967.19;4952244;28;123699;-64
2022/09/29 04:47:32;;;;;;;10.95;5.55;;;;;;;8.41;62.40;99967.34;4953277;28;114234;-64
2022/09/29 04:49:59;;;;;;;9.27;5.50;;;;;;;8.39;62.47;99976.19;4956489;28;114362;-65
2022/09/29 04:52:26;;;;;;;10.90;5.45;;;;;;;8.36;62.45;99979.00;4954691;28;124393;-65
2022/09/29 04:54:53;;;;;;;15.07;5.95;;;;;;;8.34;62.43;99986.13;4955293;28;123772;-65
2022/09/29 04:57:20;;;;;;;7.00;5.57;;;;;;;8.34;62.17;99990.53;4955242;28;114230;-64
2022/09/29 04:59:50;;;;;;;8.20;5.85;;;;;;;8.33;62.19;99984.41;4958942;28;113749;-64
2022/09/29 05:02:18;;;;;;;5.75;5.15;;;;;;;8.31;62.35;99985.44;4959757;28;124025;-64
2022/09/29 05:04:46;;;;;;;9.45;5.60;;;;;;;8.29;62.50;99988.13;4977168;28;122865;-64
2022/09/29 05:07:14;;;;;;;8.05;5.15;;;;;;;8.27;62.32;99983.84;4955708;28;114113;-64
2022/09/29 05:09:41;;;;;;;7.25;5.57;;;;;;;8.25;62.09;99991.84;4955811;28;114234;-64
2022/09/29 05:12:08;;;;;;;7.05;5.85;;;;;;;8.24;62.61;99984.84;4969943;28;123035;-64
2022/09/29 05:14:35;;;;;;;9.43;6.20;;;;;;;8.23;62.07;99987.56;4954759;28;124856;-64
2022/09/29 05:17:02;;;;;;;13.55;7.75;;;;;;;8.22;62.44;99992.00;4971247;28;114451;-65
2022/09/29 05:19:31;;;;;;;13.13;8.70;;;;;;;8.22;62.31;99992.00;4962005;28;115937;-64
2022/09/29 05:21:58;;;;;;;11.88;8.40;;;;;;;8.22;62.43;99997.28;4954538;28;123881;-64
2022/09/29 05:24:26;;;;;;;11.85;8.55;;;;;;;8.22;62.69;100002.53;4956680;28;123905;-64
2022/09/29 05:26:53;;;;;;;10.73;6.25;;;;;;;8.22;62.11;100007.81;4954150;28;114681;-64
2022/09/29 05:29:24;;;;;;;7.97;4.68;;;;;;;8.20;62.00;100004.41;4965559;28;114254;-64
2022/09/29 05:31:52;;;;;;;6.03;5.18;;;;;;;8.15;62.12;100009.03;4954389;28;124258;-64
2022/09/29 05:34:19;;;;;;;7.10;5.22;;;;;;;8.12;62.33;100010.06;4972383;28;124277;-65
2022/09/29 05:36:46;;;;;;;7.03;5.70;;;;;;;8.10;62.11;100008.41;4959717;28;114114;-65
2022/09/29 05:39:13;;;;;;;11.32;6.28;;;;;;;8.09;62.22;100011.97;4957303;28;114632;-64
2022/09/29 05:41:40;;;;;;;9.75;7.00;;;;;;;8.09;62.30;100012.84;4959314;28;124310;-64
2022/09/29 05:44:08;;;;;;;8.82;6.50;;;;;;;8.10;62.69;100029.50;4957161;28;124545;-64
2022/09/29 05:46:35;;;;;;;11.82;7.50;;;;;;;8.11;62.56;100020.69;4960692;28;115041;-64
2022/09/29 05:49:02;;;;;;;9.52;7.70;;;;;;;8.13;62.46;100022.28;4955533;28;114051;-64
2022/09/29 05:51:29;;;;;;;12.60;6.97;;;;;;;8.14;62.37;100025.81;4972823;28;123147;-64
2022/09/29 05:53:56;;;;;;;9.23;7.00;;;;;;;8.14;62.46;100025.81;4968170;28;124390;-63
2022/09/29 05:56:25;;;;;;;15.00;7.28;;;;;;;8.14;62.39;100028.44;4957590;28;114973;-62
2022/09/29 05:58:53;;;;;;;9.68;6.50;;;;;;;8.15;62.78;100027.50;4961592;28;113886;-63
2022/09/29 06:01:23;;;;;;;10.75;7.13;;;;;;;8.16;62.44;100029.22;4967373;28;124170;-65
2022/09/29 06:03:52;;;;;;;11.80;7.20;;;;;;;8.17;62.65;100041.47;4962959;28;123665;-63
2022/09/29 06:06:27;;;;;;;13.40;7.28;;;;;;;8.17;62.87;100038.84;4966411;28;114350;-63
2022/09/29 06:08:57;;;;;;;16.17;7.20;;;;;;;8.18;62.49;100043.19;4976379;28;113827;-63
2022/09/29 06:11:27;;;;;;;9.98;6.75;;;;;;;8.17;62.66;100046.75;4961361;28;124567;-63
2022/09/29 06:13:54;;;;;;;17.20;7.50;;;;;;;8.18;62.51;100043.19;4961993;28;123925;-63
2022/09/29 06:16:25;;;;;;;27.23;7.15;;;;;;;8.17;62.36;100046.75;4966755;28;114911;-64
2022/09/29 06:18:53;;;;;;;7.07;5.78;;;;;;;8.15;62.73;100051.25;4970248;28;113802;-63
2022/09/29 06:21:25;;;;;;;7.55;6.20;;;;;;;8.14;62.63;100053.03;4976142;28;123892;-64
2022/09/29 06:23:54;;;;;;;8.95;6.50;;;;;;;8.16;62.76;100060.88;4976016;28;123997;-63
2022/09/29 06:26:22;;;;;;;10.18;6.35;;;;;;;8.17;62.66;100057.28;4957700;28;113987;-64
2022/09/29 06:28:55;;;;;;;9.88;6.30;;;;;;;8.21;62.94;100053.56;4967872;28;114559;-64
2022/09/29 06:31:24;;;;;;;9.95;7.45;;;;;;;8.24;62.85;100053.44;4969634;28;124850;-63
2022/09/29 06:33:51;;;;;;;12.85;8.40;;;;;;;8.30;62.88;100055.78;4974946;28;123661;-64
2022/09/29 06:39:20;;;;;;;13.38;8.98;;;;;;;8.50;63.21;100059.28;4962110;28;114047;-64
2022/09/29 06:41:52;;;;;;;14.35;10.18;;;;;;;8.61;63.44;100056.97;4974750;28;123838;-64
2022/09/29 06:44:20;;;;;;;14.73;10.90;;;;;;;8.73;63.64;100066.91;4976979;28;123856;-64
2022/09/29 06:46:48;;;;;;;15.32;11.98;;;;;;;8.86;63.77;100061.00;4976273;28;113171;-64
2022/09/29 06:49:15;;;;;;;16.83;12.48;;;;;;;9.01;63.95;100065.50;4977481;28;114678;-62
2022/09/29 06:51:43;;;;;;;19.27;12.82;;;;;;;9.16;63.94;100070.00;4977521;28;124027;-61
2022/09/29 06:54:14;;;;;;;20.48;13.05;;;;;;;9.32;64.02;100069.19;4974281;28;123885;-61
2022/09/29 06:56:45;;;;;;;19.73;13.90;;;;;;;9.47;63.95;100078.97;4975938;28;115722;-61
2022/09/29 06:59:12;;;;;;;19.42;13.77;;;;;;;9.64;64.52;100069.28;4989139;28;115253;-61
2022/09/29 07:01:39;;;;;;;18.30;13.80;;;;;;;9.79;64.05;100073.75;4983634;28;124236;-61
2022/09/29 07:04:06;;;;;;;19.08;13.45;;;;;;;9.95;64.30;100073.78;4980564;28;123928;-61
2022/09/29 07:06:34;;;;;;;20.27;14.55;;;;;;;10.11;64.47;100079.06;4972954;28;114240;-61
2022/09/29 07:09:01;;;;;;;19.58;14.07;;;;;;;10.25;64.06;100076.50;4985767;28;114518;-61
2022/09/29 07:11:28;;;;;;;20.08;14.43;;;;;;;10.40;64.29;100082.78;4989690;28;124125;-61
2022/09/29 07:13:55;;;;;;;19.33;13.90;;;;;;;10.53;64.17;100085.59;4977167;28;123896;-61
2022/09/29 07:16:23;;;;;;;22.77;14.02;;;;;;;10.65;63.93;100079.56;4973850;28;114588;-61
2022/09/29 07:18:51;;;;;;;17.48;14.05;;;;;;;10.78;63.84;100086.81;4976811;28;113966;-62
2022/09/29 07:21:20;;;;;;;19.52;13.98;;;;;;;10.91;63.69;100086.00;4975508;28;124093;-61
2022/09/29 07:23:48;;;;;;;17.40;13.93;;;;;;;11.02;63.98;100088.03;4964883;28;123932;-61
2022/09/29 07:26:16;;;;;;;19.33;14.90;;;;;;;11.16;63.78;100094.31;4961240;28;114212;-62
2022/09/29 07:28:45;;;;;;;19.33;14.77;;;;;;;11.29;64.38;100095.28;4957241;28;113966;-60
2022/09/29 07:31:16;;;;;;;19.23;14.60;;;;;;;11.45;63.96;100106.66;4965140;28;124082;-61
2022/09/29 07:33:44;;;;;;;20.98;15.27;;;;;;;11.57;64.04;100102.41;4975100;28;123985;-61
2022/09/29 07:36:12;;;;;;;22.88;15.25;;;;;;;11.67;63.87;100100.03;4972472;28;114204;-61
2022/09/29 07:38:40;;;;;;;24.50;15.07;;;;;;;11.78;63.67;100102.88;4959301;28;114300;-62
2022/09/29 07:41:10;;;;;;;20.25;15.35;;;;;;;11.91;63.57;100102.16;4968754;28;125310;-61
2022/09/29 07:43:38;;;;;;;22.25;16.13;;;;;;;12.03;63.98;100096.06;4959372;28;123933;-61
2022/09/29 07:46:06;;;;;;;23.02;16.42;;;;;;;12.17;64.03;100104.03;4956283;28;115209;-62
2022/09/29 07:48:35;;;;;;;20.70;15.25;;;;;;;12.30;63.62;100097.91;4958773;28;114817;-61
2022/09/29 07:51:10;;;;;;;22.13;15.90;;;;;;;12.41;63.25;100100.72;4957780;28;124869;-61
2022/09/29 07:53:38;;;;;;;21.08;15.82;;;;;;;12.50;63.42;100100.13;4970747;28;124548;-62
2022/09/29 07:56:08;;;;;;;21.25;15.60;;;;;;;12.59;63.36;100104.84;4987385;28;113502;-62
2022/09/29 07:58:36;;;;;;;22.33;15.65;;;;;;;12.64;63.00;100113.38;4959818;28;114659;-62
2022/09/29 08:01:09;;;;;;;19.55;15.65;;;;;;;12.69;62.95;100104.25;4969748;28;124740;-61
2022/09/29 08:03:40;;;;;;;22.33;15.57;;;;;;;12.74;62.94;100112.78;4973259;28;124480;-62
2022/09/29 08:06:08;;;;;;;21.58;14.93;;;;;;;12.81;62.92;100114.09;4969780;28;114764;-62
2022/09/29 08:08:36;;;;;;;20.48;15.88;;;;;;;12.89;62.89;100122.38;4969983;28;114074;-62
2022/09/29 08:11:10;;;;;;;22.55;16.17;;;;;;;12.95;62.72;100119.31;4972017;28;124169;-61
2022/09/29 08:13:52;;;;;;;21.65;15.60;;;;;;;13.05;62.79;100127.50;4961991;28;124746;-61
2022/09/29 08:16:19;;;;;;;22.67;15.48;;;;;;;13.13;62.53;100129.66;4952936;28;114428;-61
2022/09/29 08:18:47;;;;;;;21.17;14.98;;;;;;;13.18;62.51;100132.88;4962468;28;114275;-62
2022/09/29 08:21:14;;;;;;;22.40;15.73;;;;;;;13.23;62.49;100134.25;4983204;28;123616;-62
2022/09/29 08:23:42;;;;;;;21.52;16.30;;;;;;;13.31;62.59;100139.09;4971103;28;123806;-62
2022/09/29 08:26:16;;;;;;;21.23;16.00;;;;;;;13.40;62.76;100137.63;4972593;28;113383;-62
2022/09/29 08:28:44;;;;;;;25.02;16.33;;;;;;;13.50;62.56;100144.00;4969372;28;113884;-62
2022/09/29 08:31:19;;;;;;;21.73;16.23;;;;;;;13.57;62.58;100144.44;4973460;28;123984;-61
2022/09/29 08:33:48;;;;;;;;;;;;;;;13.62;62.79;100147.66;4967280;28;123752;-61
2022/09/29 08:36:17;;;;;;;21.60;15.68;;;;;;;13.75;62.62;100148.50;4969367;28;116140;-61
2022/09/29 08:38:46;;;;;;;21.92;16.33;;;;;;;13.86;62.63;100154.88;4974322;28;114781;-62
2022/09/29 08:41:51;;;;;;;20.58;16.88;;;;;;;13.97;62.82;100154.97;4963919;28;124120;-61
2022/09/29 08:44:40;;;;;;;19.67;12.85;;;;;;;14.07;62.63;100164.03;4968972;28;124888;-61
2022/09/29 08:47:27;;;;;;;22.50;15.63;;;;;;;14.17;62.61;100159.75;4969277;28;114732;-61
2022/09/29 08:50:30;;;;;;;21.70;16.00;;;;;;;14.28;62.57;100166.09;4959511;28;114394;-61
2022/09/29 08:53:06;;;;;;;23.48;16.40;;;;;;;14.38;62.55;100169.84;4951478;28;124818;-61
2022/09/29 08:55:56;;;;;;;21.98;15.15;;;;;;;14.50;62.54;100160.94;4964808;28;123965;-61
2022/09/29 08:58:23;;;;;;;22.30;15.88;;;;;;;14.59;62.40;100162.97;4950014;28;113993;-61
2022/09/29 09:00:58;;;;;;;21.42;15.55;;;;;;;14.68;62.30;100168.63;4965432;28;114379;-61
2022/09/29 09:03:51;;;;;;;20.58;15.48;;;;;;;14.78;62.40;100169.63;4950835;28;124763;-64
2022/09/29 09:06:22;;;;;;;21.15;14.73;;;;;;;14.88;61.97;100170.66;4962690;28;123630;-62
2022/09/29 09:09:12;;;;;;;17.65;13.98;;;;;;;14.97;62.08;100175.31;4950357;28;113901;-62
2022/09/29 09:12:07;;;;;;;20.48;14.07;;;;;;;15.08;61.84;100179.00;4959055;28;114044;-62
2022/09/29 09:15:00;;;;;;;16.70;12.63;;;;;;;15.13;61.26;100179.50;4953978;28;123683;-61
2022/09/29 09:18:12;;;;;;;17.10;13.30;;;;;;;15.18;61.52;100178.19;4949845;28;124026;-62
2022/09/29 09:20:54;;;;;;;16.48;12.80;;;;;;;15.26;61.28;100180.28;4954366;28;113925;-62
2022/09/29 09:23:27;;;;;;;19.77;14.20;;;;;;;15.32;61.22;100179.81;4969177;28;114121;-62
2022/09/29 09:25:59;;;;;;;16.90;13.25;;;;;;;15.40;60.96;100181.06;4968295;28;124725;-62
2022/09/29 09:28:33;;;;;;;20.27;14.27;;;;;;;15.46;61.21;100180.59;4970657;28;123597;-62
2022/09/29 09:31:16;;;;;;;18.38;12.75;;;;;;;15.54;60.89;100183.53;4970487;28;115292;-62
2022/09/29 09:33:52;;;;;;;17.20;12.65;;;;;;;15.64;61.06;100184.53;4968969;28;115453;-61
2022/09/29 09:36:56;;;;;;;14.45;11.93;;;;;;;15.73;60.78;100178.50;4968375;28;124066;-62
2022/09/29 09:40:10;;;;;;;14.07;10.80;;;;;;;15.84;60.74;100179.47;4970963;28;124172;-62
2022/09/29 09:42:43;;;;;;;12.55;9.80;;;;;;;15.92;60.14;100187.75;4961731;28;114657;-62
2022/09/29 09:45:21;;;;;;;12.95;9.32;;;;;;;15.95;59.76;100187.50;4980484;28;113187;-62
2022/09/29 09:48:05;;;;;;;12.15;9.05;;;;;;;16.02;60.05;100188.72;4945121;28;124497;-62
2022/09/29 09:50:32;;;;;;;15.75;8.88;;;;;;;16.11;59.88;100188.00;4956007;28;124072;-61
2022/09/29 09:53:14;;;;;;;13.45;9.52;;;;;;;16.19;59.68;100191.91;4967359;28;114610;-62
2022/09/29 09:55:42;;;;;;;11.23;9.13;;;;;;;16.26;59.44;100190.44;4957661;28;113733;-62
2022/09/29 09:58:25;;;;;;;12.52;9.52;;;;;;;16.34;59.48;100188.00;4970607;28;124101;-61
2022/09/29 10:01:11;;;;;;;14.88;9.40;;;;;;;16.42;59.24;100185.56;4958737;28;123951;-62
2022/09/29 10:03:38;;;;;;;;;;;;;;;16.47;59.67;100188.72;4971315;28;114194;-62
2022/09/29 10:06:07;;;;;;;13.88;9.18;;;;;;;16.56;59.08;100197.84;4969659;28;114395;-62
2022/09/29 10:08:43;;;;;;;12.90;9.90;;;;;;;16.60;58.94;100193.09;4954591;28;124652;-62
2022/09/29 10:11:25;;;;;;;11.98;8.43;;;;;;;16.69;58.83;100197.69;4967271;28;123982;-62
2022/09/29 10:14:24;;;;;;;9.77;8.23;;;;;;;16.75;58.37;100197.19;4955391;28;114171;-62
2022/09/29 10:16:54;;;;;;;13.10;9.43;;;;;;;16.81;58.29;100195.84;4966582;28;113816;-62
2022/09/29 10:19:43;;;;;;;13.32;9.32;;;;;;;16.87;58.40;100198.88;4967450;28;124573;-62
2022/09/29 10:22:13;;;;;;;10.90;9.52;;;;;;;16.93;57.79;100195.72;4963726;28;123918;-62
2022/09/29 10:24:40;;;;;;;13.50;9.88;;;;;;;16.99;57.82;100198.84;4968030;28;116072;-62
2022/09/29 10:27:07;;;;;;;11.13;9.35;;;;;;;17.04;57.62;100202.00;4963564;28;114850;-62
2022/09/29 10:29:39;;;;;;;11.73;9.00;;;;;;;17.07;57.46;100202.59;4964275;28;124107;-62
2022/09/29 10:32:20;;;;;;;13.40;10.10;;;;;;;17.12;57.38;100199.53;4964864;28;123719;-62
2022/09/29 10:35:00;;;;;;;14.20;9.48;;;;;;;17.18;57.54;100201.72;4953816;28;114536;-62
2022/09/29 10:37:34;;;;;;;12.98;8.48;;;;;;;17.27;57.30;100202.75;4960944;28;114442;-62
2022/09/29 10:40:07;;;;;;;11.05;7.93;;;;;;;17.38;56.97;100199.19;4966657;28;124348;-62
2022/09/29 10:42:36;;;;;;;12.15;8.75;;;;;;;17.45;57.06;100201.22;4968998;28;123618;-62
2022/09/29 10:45:06;;;;;;;15.55;9.07;;;;;;;17.54;56.97;100202.28;4968699;28;114188;-62
2022/09/29 10:47:33;;;;;;;10.13;8.52;;;;;;;17.61;56.89;100205.28;4964921;28;114553;-62
2022/09/29 10:50:22;;;;;;;10.63;8.60;;;;;;;17.63;56.08;100204.19;4966329;28;124115;-62
2022/09/29 10:53:02;;;;;;;11.10;8.05;;;;;;;17.68;55.77;100204.63;4966301;28;123657;-62
2022/09/29 10:55:33;;;;;;;11.85;9.15;;;;;;;17.75;55.70;100206.81;4957789;28;114855;-63
2022/09/29 10:58:16;;;;;;;8.60;7.13;;;;;;;17.80;55.98;100208.09;4956187;28;113904;-62
2022/09/29 11:01:09;;;;;;;9.90;7.13;;;;;;;17.91;55.76;100220.59;4958438;28;123979;-62
2022/09/29 11:03:39;;;;;;;9.95;6.50;;;;;;;17.99;55.16;100212.75;4959005;28;124318;-62
2022/09/29 11:06:13;;;;;;;8.75;6.78;;;;;;;18.08;55.32;100209.28;4960674;28;114403;-62
2022/09/29 11:09:03;;;;;;;9.73;6.90;;;;;;;18.19;55.27;100210.16;4954893;28;114020;-62
2022/09/29 11:11:36;;;;;;;10.18;6.90;;;;;;;18.25;54.58;100213.19;4960760;28;123908;-62
2022/09/29 11:14:04;;;;;;;7.60;6.10;;;;;;;18.33;54.72;100217.84;4957033;28;124681;-62
2022/09/29 11:16:32;;;;;;;8.88;6.20;;;;;;;18.42;54.64;100219.72;4957387;28;116223;-63
2022/09/29 11:19:13;;;;;;;7.40;5.78;;;;;;;18.54;53.97;100214.28;4960514;28;115560;-63
2022/09/29 11:22:02;;;;;;;5.35;4.80;;;;;;;18.65;53.79;100214.16;4958597;28;124045;-63
2022/09/29 11:25:10;;;;;;;8.02;5.45;;;;;;;18.76;53.63;100214.06;4959904;28;124711;-63
2022/09/29 11:27:44;;;;;;;6.38;5.05;;;;;;;18.81;53.26;100216.34;4956146;28;114137;-63
2022/09/29 11:30:18;;;;;;;7.70;5.28;;;;;;;18.81;52.33;100211.81;4960616;28;114652;-63
2022/09/29 11:33:12;;;;;;;7.72;4.80;;;;;;;18.81;51.93;100211.81;4959051;28;125296;-63
2022/09/29 11:36:04;;;;;;;10.00;5.35;;;;;;;18.81;52.83;100211.81;4961445;28;123719;-63
2022/09/29 11:38:41;;;;;;;6.38;4.97;;;;;;;18.84;52.73;100210.72;4961747;28;114085;-63
2022/09/29 11:41:28;;;;;;;7.30;4.68;;;;;;;18.85;51.56;100218.63;4961100;28;114371;-63
2022/09/29 11:44:02;;;;;;;8.88;5.63;;;;;;;18.75;51.04;100217.72;4966847;28;125063;-63
2022/09/29 11:47:02;;;;;;;7.20;5.53;;;;;;;18.65;51.33;100224.91;4971370;28;124563;-63
2022/09/29 11:49:54;;;;;;;7.97;5.60;;;;;;;18.61;51.65;100231.50;4965344;28;114529;-63